Аэропорт
Душанбе (UTDD)

 UTDD / DYU
ЗЦ Центральная Азия
Душанбе (UTDD)
Душанбе (UTDD)
 38.54330, 68.82500  / 2575 ft

 TAF UTDD 050600Z 0507/0519 10005MPS 6000 FEW060CB SCT100 TEMPO 0507/0519 VRB02MPS PROB40 TEMPO 0507/0519 TS BECMG 0514/0516 07005MPS
UTDD charts
показать схемы
Название сценария Тип сценария Flight Simulator 9 Flight Simulator X Prepar3D v2 Prepar3D v3 Prepar3D v4 xPlane
Recommended scenery for FS9 бесплатный
Recommended scenery for FSX бесплатный
Recommended scenery for xPlane бесплатный


2020 © VATRUS division (Privacy Policy)